Time;durP1;ratioP1;P1;durP2;ratioP2;P2;SDS_P1;SDS_P2;PMS_P1;PMS_P2;Temp;Humidity;BMP_temperature;BMP_pressure;BME280_temperature;BME280_humidity;BME280_pressure;Samples;Min_cycle;Max_cycle;Signal;HPM_P1;HPM_P2
2022/01/09 00:01:05;;;;;;;;;;;24.50;99.90;;;;;;5072858;28;19960;-74
2022/01/09 00:03:32;;;;;;;;;;;24.40;99.90;;;;;;5073506;28;19915;-74
2022/01/09 00:05:59;;;;;;;;;;;24.30;99.90;;;;;;5072501;28;19915;-76
2022/01/09 00:08:25;;;;;;;;;;;24.50;99.90;;;;;;5072582;28;19962;-75
2022/01/09 00:10:52;;;;;;;;;;;24.60;99.90;;;;;;5072393;28;19927;-76
2022/01/09 00:13:19;;;;;;;;;;;24.60;99.90;;;;;;5072648;28;19951;-75
2022/01/09 00:15:46;;;;;;;;;;;24.50;99.90;;;;;;5072691;28;19909;-76
2022/01/09 00:18:13;;;;;;;;;;;24.50;99.90;;;;;;5072682;28;20015;-75
2022/01/09 00:20:40;;;;;;;;;;;24.50;99.90;;;;;;5072453;28;19962;-74
2022/01/09 00:23:06;;;;;;;;;;;24.40;99.90;;;;;;5072185;28;20011;-75
2022/01/09 00:25:33;;;;;;;;;;;24.40;99.90;;;;;;5072387;28;19916;-75
2022/01/09 00:28:00;;;;;;;;;;;24.30;99.90;;;;;;5072336;28;19947;-75
2022/01/09 00:30:26;;;;;;;;;;;24.30;99.90;;;;;;5072382;28;19915;-75
2022/01/09 00:32:53;;;;;;;;;;;24.20;99.90;;;;;;5072401;28;20120;-75
2022/01/09 00:35:20;;;;;;;;;;;24.30;99.90;;;;;;5072404;28;19913;-76
2022/01/09 00:37:47;;;;;;;;;;;24.30;99.90;;;;;;5072070;28;20416;-77
2022/01/09 00:40:14;;;;;;;;;;;24.30;99.90;;;;;;5072411;28;19908;-76
2022/01/09 00:42:41;;;;;;;;;;;24.30;99.90;;;;;;5072257;28;19924;-76
2022/01/09 00:45:08;;;;;;;;;;;24.20;99.90;;;;;;5072394;28;20453;-76
2022/01/09 00:47:35;;;;;;;;;;;24.10;99.90;;;;;;5076073;28;20359;-76
2022/01/09 00:50:02;;;;;;;;;;;24.00;99.90;;;;;;5075936;28;19962;-76
2022/01/09 00:52:29;;;;;;;;;;;23.90;99.90;;;;;;5075930;28;19916;-76
2022/01/09 00:54:56;;;;;;;;;;;23.90;99.90;;;;;;5076082;28;19908;-75
2022/01/09 00:57:23;;;;;;;;;;;24.00;99.90;;;;;;5076157;28;19912;-76
2022/01/09 00:59:49;;;;;;;;;;;23.90;99.90;;;;;;5076069;28;19944;-75
2022/01/09 01:02:16;;;;;;;;;;;23.90;99.90;;;;;;5076076;28;19927;-76
2022/01/09 01:04:43;;;;;;;;;;;24.00;99.90;;;;;;5075885;28;19909;-75
2022/01/09 01:07:09;;;;;;;;;;;24.20;99.90;;;;;;5075765;28;20363;-76
2022/01/09 01:09:36;;;;;;;;;;;24.20;99.90;;;;;;5075724;28;19924;-76
2022/01/09 01:12:03;;;;;;;;;;;24.20;99.90;;;;;;5075768;28;19916;-76
2022/01/09 01:14:31;;;;;;;;;;;24.10;99.90;;;;;;5075774;28;19909;-76
2022/01/09 01:16:58;;;;;;;;;;;24.00;99.90;;;;;;5075756;28;19909;-76
2022/01/09 01:19:25;;;;;;;;;;;24.10;99.90;;;;;;5075682;28;19909;-75
2022/01/09 01:21:51;;;;;;;;;;;24.00;99.90;;;;;;5075177;28;19920;-76
2022/01/09 01:24:20;;;;;;;;;;;24.00;99.90;;;;;;5075542;28;20367;-75
2022/01/09 01:26:47;;;;;;;;;;;24.10;99.90;;;;;;5075663;28;20286;-76
2022/01/09 01:29:14;;;;;;;;;;;24.10;99.90;;;;;;5074317;28;19920;-75
2022/01/09 01:31:40;;;;;;;;;;;24.10;99.90;;;;;;5075585;28;19908;-75
2022/01/09 01:34:07;;;;;;;;;;;24.00;99.90;;;;;;5075061;28;19908;-75
2022/01/09 01:36:34;;;;;;;;;;;23.90;99.90;;;;;;5075006;28;19913;-75
2022/01/09 01:39:01;;;;;;;;;;;23.80;99.90;;;;;;5074965;28;19959;-75
2022/01/09 01:41:27;;;;;;;;;;;23.80;99.90;;;;;;5074937;28;20329;-75
2022/01/09 01:43:54;;;;;;;;;;;23.60;99.90;;;;;;5075003;28;20318;-75
2022/01/09 01:46:21;;;;;;;;;;;23.60;99.90;;;;;;5075250;28;19954;-75
2022/01/09 01:48:48;;;;;;;;;;;23.50;99.90;;;;;;5073765;28;19951;-75
2022/01/09 01:51:15;;;;;;;;;;;23.50;99.90;;;;;;5075049;28;19913;-76
2022/01/09 01:53:42;;;;;;;;;;;23.40;99.90;;;;;;5074884;28;19915;-75
2022/01/09 01:56:12;;;;;;;;;;;23.30;99.90;;;;;;5074953;28;19908;-75
2022/01/09 01:58:39;;;;;;;;;;;23.30;99.90;;;;;;5074190;28;19915;-75
2022/01/09 02:01:05;;;;;;;;;;;23.20;99.90;;;;;;5074752;28;19913;-75
2022/01/09 02:03:32;;;;;;;;;;;23.00;99.90;;;;;;5074881;28;19939;-74
2022/01/09 02:05:59;;;;;;;;;;;22.80;99.90;;;;;;5074846;28;19951;-75
2022/01/09 02:08:25;;;;;;;;;;;22.70;99.90;;;;;;5074599;28;19915;-75
2022/01/09 02:10:52;;;;;;;;;;;22.60;99.90;;;;;;5074659;28;19920;-75
2022/01/09 02:13:20;;;;;;;;;;;22.60;99.90;;;;;;5074835;28;20335;-76
2022/01/09 02:15:47;;;;;;;;;;;22.70;99.90;;;;;;5074530;28;19912;-75
2022/01/09 02:18:15;;;;;;;;;;;22.70;99.90;;;;;;5074638;28;19917;-76
2022/01/09 02:20:42;;;;;;;;;;;22.60;99.90;;;;;;5074624;28;20380;-75
2022/01/09 02:23:10;;;;;;;;;;;22.50;99.90;;;;;;5074251;28;19916;-76
2022/01/09 02:25:37;;;;;;;;;;;22.40;99.90;;;;;;5074406;28;19932;-75
2022/01/09 02:28:05;;;;;;;;;;;22.30;99.90;;;;;;5074093;28;19912;-75
2022/01/09 02:30:32;;;;;;;;;;;22.30;99.90;;;;;;5074481;28;20007;-75
2022/01/09 02:33:03;;;;;;;;;;;22.20;99.90;;;;;;5074510;28;19962;-76
2022/01/09 02:35:29;;;;;;;;;;;22.20;99.90;;;;;;5074175;28;19909;-76
2022/01/09 02:37:56;;;;;;;;;;;22.10;99.90;;;;;;5073307;28;19915;-77
2022/01/09 02:40:23;;;;;;;;;;;22.10;99.90;;;;;;5074106;28;19908;-76
2022/01/09 02:42:51;;;;;;;;;;;22.00;99.90;;;;;;5073895;28;19923;-77
2022/01/09 02:45:21;;;;;;;;;;;21.90;99.90;;;;;;5074106;28;19959;-77
2022/01/09 02:47:48;;;;;;;;;;;22.00;99.90;;;;;;5074074;28;19908;-77
2022/01/09 02:52:51;;;;;;;;;;;21.90;99.90;;;;;;5073933;28;19913;-77
2022/01/09 02:55:18;;;;;;;;;;;22.00;99.90;;;;;;5073731;28;19909;-77
2022/01/09 02:57:46;;;;;;;;;;;22.00;99.90;;;;;;5073662;28;19969;-77
2022/01/09 03:00:15;;;;;;;;;;;22.10;99.90;;;;;;5073874;28;19951;-75
2022/01/09 03:02:42;;;;;;;;;;;22.10;99.90;;;;;;5073609;28;19916;-76
2022/01/09 03:05:13;;;;;;;;;;;22.10;99.90;;;;;;5073707;28;20050;-75
2022/01/09 03:07:40;;;;;;;;;;;22.10;99.90;;;;;;5073631;28;19970;-76
2022/01/09 03:10:11;;;;;;;;;;;22.10;99.90;;;;;;5073136;28;19920;-75
2022/01/09 03:12:39;;;;;;;;;;;22.10;99.90;;;;;;5073464;28;19915;-76
2022/01/09 03:15:08;;;;;;;;;;;22.20;99.90;;;;;;5073505;28;20757;-75
2022/01/09 03:17:35;;;;;;;;;;;22.20;99.90;;;;;;5072246;28;19919;-76
2022/01/09 03:20:05;;;;;;;;;;;22.20;99.90;;;;;;5073407;28;19915;-76
2022/01/09 03:22:33;;;;;;;;;;;22.40;99.90;;;;;;5073103;28;20291;-75
2022/01/09 03:25:00;;;;;;;;;;;22.50;99.90;;;;;;5072259;28;19916;-77
2022/01/09 03:27:26;;;;;;;;;;;22.70;99.90;;;;;;5073195;28;19916;-76
2022/01/09 03:29:53;;;;;;;;;;;22.70;99.90;;;;;;5073040;28;20007;-74
2022/01/09 03:32:20;;;;;;;;;;;22.90;99.90;;;;;;5073203;28;19915;-75
2022/01/09 03:34:48;;;;;;;;;;;23.00;99.90;;;;;;5073282;28;20279;-76
2022/01/09 03:37:16;;;;;;;;;;;23.10;99.90;;;;;;5073050;28;19970;-76
2022/01/09 03:39:42;;;;;;;;;;;23.10;99.90;;;;;;5073059;28;19916;-75
2022/01/09 03:42:09;;;;;;;;;;;23.10;99.90;;;;;;5072533;28;19916;-76
2022/01/09 03:44:36;;;;;;;;;;;23.10;99.90;;;;;;5072959;28;19947;-74
2022/01/09 03:47:02;;;;;;;;;;;23.00;99.90;;;;;;5072985;28;20359;-75
2022/01/09 03:49:30;;;;;;;;;;;23.00;99.90;;;;;;5072866;28;19916;-76
2022/01/09 03:51:58;;;;;;;;;;;22.90;99.90;;;;;;5072572;28;19915;-76
2022/01/09 03:54:26;;;;;;;;;;;23.00;99.90;;;;;;5072772;28;19919;-75
2022/01/09 03:56:53;;;;;;;;;;;23.10;99.90;;;;;;5072787;28;19908;-76
2022/01/09 03:59:19;;;;;;;;;;;23.20;99.90;;;;;;5072875;28;19916;-74
2022/01/09 04:01:47;;;;;;;;;;;23.20;99.90;;;;;;5072297;28;20263;-74
2022/01/09 04:04:14;;;;;;;;;;;23.20;99.90;;;;;;5072538;28;20526;-76
2022/01/09 04:06:46;;;;;;;;;;;23.20;99.90;;;;;;5072476;28;20000;-76
2022/01/09 04:09:26;;;;;;;;;;;23.20;99.90;;;;;;5072317;28;19999;-76
2022/01/09 04:11:57;;;;;;;;;;;23.30;99.90;;;;;;5072544;28;19916;-75
2022/01/09 04:14:24;;;;;;;;;;;23.30;99.90;;;;;;5072693;28;19913;-76
2022/01/09 04:16:51;;;;;;;;;;;23.30;99.90;;;;;;5072831;28;20507;-76
2022/01/09 04:19:17;;;;;;;;;;;23.40;99.90;;;;;;5072635;28;19908;-76
2022/01/09 04:21:47;;;;;;;;;;;23.50;99.90;;;;;;5071471;28;19928;-75
2022/01/09 04:24:14;;;;;;;;;;;23.50;99.90;;;;;;5072349;28;20359;-76
2022/01/09 04:26:40;;;;;;;;;;;23.60;99.90;;;;;;5072462;28;19909;-75
2022/01/09 04:29:07;;;;;;;;;;;23.70;99.90;;;;;;5072375;28;19962;-75
2022/01/09 04:31:34;;;;;;;;;;;23.80;99.90;;;;;;5072508;28;19916;-75
2022/01/09 04:34:01;;;;;;;;;;;23.90;99.90;;;;;;5072324;28;19909;-76
2022/01/09 04:36:27;;;;;;;;;;;23.90;99.90;;;;;;5072254;28;19908;-75
2022/01/09 04:38:55;;;;;;;;;;;23.90;99.90;;;;;;5072476;28;20343;-76
2022/01/09 04:41:22;;;;;;;;;;;23.80;99.90;;;;;;5072128;28;19919;-75
2022/01/09 04:43:50;;;;;;;;;;;23.90;99.90;;;;;;5072074;28;19908;-74
2022/01/09 04:46:28;;;;;;;;;;;23.90;99.90;;;;;;5072359;28;20335;-75
2022/01/09 04:48:55;;;;;;;;;;;24.00;99.90;;;;;;5072242;28;19909;-74
2022/01/09 04:51:22;;;;;;;;;;;24.00;99.90;;;;;;5072189;28;19916;-75
2022/01/09 04:53:49;;;;;;;;;;;24.10;99.90;;;;;;5070701;28;20365;-75
2022/01/09 04:56:16;;;;;;;;;;;24.20;99.90;;;;;;5072028;28;19915;-75
2022/01/09 04:58:42;;;;;;;;;;;24.30;99.90;;;;;;5072052;28;20003;-75
2022/01/09 05:01:09;;;;;;;;;;;24.30;99.90;;;;;;5072044;28;19970;-75
2022/01/09 05:03:36;;;;;;;;;;;24.40;99.90;;;;;;5072141;28;19912;-75
2022/01/09 05:06:02;;;;;;;;;;;24.40;99.90;;;;;;5071853;28;19963;-75
2022/01/09 05:08:29;;;;;;;;;;;24.40;99.90;;;;;;5071943;28;19915;-76
2022/01/09 05:10:55;;;;;;;;;;;24.30;99.90;;;;;;5071967;28;19952;-75
2022/01/09 05:13:24;;;;;;;;;;;24.30;99.90;;;;;;5071980;28;19908;-76
2022/01/09 05:15:50;;;;;;;;;;;24.20;99.90;;;;;;5071871;28;19909;-75
2022/01/09 05:18:17;;;;;;;;;;;24.30;99.90;;;;;;5072115;28;20390;-75
2022/01/09 05:20:44;;;;;;;;;;;24.30;99.90;;;;;;5071722;28;19913;-75
2022/01/09 05:23:13;;;;;;;;;;;24.20;99.90;;;;;;5071771;28;20382;-74
2022/01/09 05:25:40;;;;;;;;;;;24.20;99.90;;;;;;5070583;28;19909;-76
2022/01/09 05:28:07;;;;;;;;;;;24.20;99.90;;;;;;5071809;28;19939;-74
2022/01/09 05:30:33;;;;;;;;;;;24.10;99.90;;;;;;5071974;28;19909;-76
2022/01/09 05:33:00;;;;;;;;;;;24.10;99.90;;;;;;5073048;28;20016;-75
2022/01/09 05:35:27;;;;;;;;;;;24.10;99.90;;;;;;5075158;28;19908;-75
2022/01/09 05:37:54;;;;;;;;;;;24.00;99.90;;;;;;5073992;28;19923;-75
2022/01/09 05:40:20;;;;;;;;;;;23.90;99.90;;;;;;5075366;28;19908;-76
2022/01/09 05:42:47;;;;;;;;;;;23.90;99.90;;;;;;5075224;28;20011;-75
2022/01/09 05:45:17;;;;;;;;;;;23.90;99.90;;;;;;5075369;28;19999;-76
2022/01/09 05:47:44;;;;;;;;;;;23.90;99.90;;;;;;5075268;28;19919;-75
2022/01/09 05:50:11;;;;;;;;;;;23.90;99.90;;;;;;5075213;28;20305;-75
2022/01/09 05:52:37;;;;;;;;;;;23.90;99.90;;;;;;5075192;28;19956;-75
2022/01/09 05:55:04;;;;;;;;;;;23.90;99.90;;;;;;5074986;28;19916;-76
2022/01/09 05:57:31;;;;;;;;;;;23.90;99.90;;;;;;5075055;28;19915;-76
2022/01/09 05:59:58;;;;;;;;;;;23.90;99.90;;;;;;5074597;28;19978;-75
2022/01/09 06:02:25;;;;;;;;;;;23.90;99.90;;;;;;5074971;28;19917;-76
2022/01/09 06:04:51;;;;;;;;;;;23.90;99.90;;;;;;5074740;28;19909;-75
2022/01/09 06:07:18;;;;;;;;;;;23.90;99.90;;;;;;5074875;28;19916;-74
2022/01/09 06:09:44;;;;;;;;;;;23.90;99.90;;;;;;5074869;28;19920;-75
2022/01/09 06:12:11;;;;;;;;;;;23.90;99.90;;;;;;5074491;28;19913;-76
2022/01/09 06:14:38;;;;;;;;;;;23.90;99.90;;;;;;5074706;28;20359;-73
2022/01/09 06:17:05;;;;;;;;;;;23.90;99.90;;;;;;5074683;28;19908;-74
2022/01/09 06:19:31;;;;;;;;;;;23.90;99.90;;;;;;5074642;28;19908;-73
2022/01/09 06:21:58;;;;;;;;;;;24.00;99.90;;;;;;5074086;28;20010;-73
2022/01/09 06:24:25;;;;;;;;;;;24.00;99.90;;;;;;5074103;28;19915;-73
2022/01/09 06:26:51;;;;;;;;;;;24.00;99.90;;;;;;5074543;28;19954;-75
2022/01/09 06:29:19;;;;;;;;;;;24.00;99.90;;;;;;5074474;28;19909;-74
2022/01/09 06:31:45;;;;;;;;;;;24.00;99.90;;;;;;5074579;28;20371;-74
2022/01/09 06:34:13;;;;;;;;;;;24.00;99.90;;;;;;5074177;28;20343;-74
2022/01/09 06:36:40;;;;;;;;;;;24.00;99.90;;;;;;5073965;28;19913;-76
2022/01/09 06:39:07;;;;;;;;;;;23.90;99.90;;;;;;5073808;28;19928;-74
2022/01/09 06:41:34;;;;;;;;;;;24.00;99.90;;;;;;5074227;28;19921;-73
2022/01/09 06:44:00;;;;;;;;;;;24.00;99.90;;;;;;5073407;28;19909;-74
2022/01/09 06:46:27;;;;;;;;;;;24.00;99.90;;;;;;5073863;28;19915;-74
2022/01/09 06:48:54;;;;;;;;;;;24.00;99.90;;;;;;5074062;28;19930;-74
2022/01/09 06:51:20;;;;;;;;;;;24.10;99.90;;;;;;5073856;28;19962;-75
2022/01/09 06:53:47;;;;;;;;;;;24.00;99.90;;;;;;5072946;28;19913;-75
2022/01/09 06:56:14;;;;;;;;;;;24.10;99.90;;;;;;5073889;28;19916;-74
2022/01/09 06:58:40;;;;;;;;;;;24.10;99.90;;;;;;5073898;28;20301;-74
2022/01/09 07:01:07;;;;;;;;;;;24.20;99.90;;;;;;5073670;28;19979;-75
2022/01/09 07:03:34;;;;;;;;;;;24.20;99.90;;;;;;5073652;28;19920;-74
2022/01/09 07:06:00;;;;;;;;;;;24.20;99.90;;;;;;5073381;28;19909;-74
2022/01/09 07:08:28;;;;;;;;;;;24.20;99.90;;;;;;5072930;28;20007;-75
2022/01/09 07:10:55;;;;;;;;;;;24.20;99.90;;;;;;5073538;28;19927;-74
2022/01/09 07:13:22;;;;;;;;;;;24.10;99.90;;;;;;5073582;28;19908;-73
2022/01/09 07:15:49;;;;;;;;;;;24.10;99.90;;;;;;5073287;28;20286;-74
2022/01/09 07:18:15;;;;;;;;;;;24.10;99.90;;;;;;5073722;28;20376;-74
2022/01/09 07:20:42;;;;;;;;;;;24.10;99.90;;;;;;5073141;28;19909;-74
2022/01/09 07:23:09;;;;;;;;;;;24.10;99.90;;;;;;5072853;28;19913;-74
2022/01/09 07:25:35;;;;;;;;;;;24.00;99.90;;;;;;5073314;28;19920;-74
2022/01/09 07:28:02;;;;;;;;;;;24.00;99.90;;;;;;5073116;28;20347;-72
2022/01/09 07:30:29;;;;;;;;;;;24.00;99.90;;;;;;5073226;28;19912;-75
2022/01/09 07:32:57;;;;;;;;;;;23.90;99.90;;;;;;5073338;28;20267;-74
2022/01/09 07:35:24;;;;;;;;;;;23.90;99.90;;;;;;5072928;28;19909;-73
2022/01/09 07:37:50;;;;;;;;;;;23.90;99.90;;;;;;5072303;28;20007;-74
2022/01/09 07:40:19;;;;;;;;;;;23.80;99.90;;;;;;5073103;28;19912;-75
2022/01/09 07:42:46;;;;;;;;;;;23.80;99.90;;;;;;5072773;28;19956;-73
2022/01/09 07:45:14;;;;;;;;;;;23.80;99.90;;;;;;5072994;28;19909;-73
2022/01/09 07:47:41;;;;;;;;;;;23.80;99.90;;;;;;5073007;28;19912;-74
2022/01/09 07:50:14;;;;;;;;;;;23.70;99.90;;;;;;5072613;28;19909;-73
2022/01/09 07:52:41;;;;;;;;;;;23.70;99.90;;;;;;5072405;28;19915;-74
2022/01/09 07:55:08;;;;;;;;;;;23.70;99.90;;;;;;5072354;28;19908;-74
2022/01/09 07:57:35;;;;;;;;;;;23.60;99.90;;;;;;5072751;28;19990;-73
2022/01/09 08:00:03;;;;;;;;;;;23.60;99.90;;;;;;5072672;28;19909;-73
2022/01/09 08:02:30;;;;;;;;;;;23.60;99.90;;;;;;5072708;28;19967;-73
2022/01/09 08:04:57;;;;;;;;;;;23.60;99.90;;;;;;5072664;28;19909;-75
2022/01/09 08:07:23;;;;;;;;;;;23.60;99.90;;;;;;5072192;28;20376;-73
2022/01/09 08:09:50;;;;;;;;;;;23.60;99.90;;;;;;5072162;28;19917;-73
2022/01/09 08:12:17;;;;;;;;;;;23.60;99.90;;;;;;5072674;28;20351;-74
2022/01/09 08:14:44;;;;;;;;;;;23.50;99.90;;;;;;5072481;28;19908;-74
2022/01/09 08:17:12;;;;;;;;;;;23.50;99.90;;;;;;5072559;28;19908;-75
2022/01/09 08:19:38;;;;;;;;;;;23.50;99.90;;;;;;5072317;28;19908;-74
2022/01/09 08:22:06;;;;;;;;;;;23.50;99.90;;;;;;5104432;28;20278;-75
2022/01/09 08:24:33;;;;;;;;;;;23.50;99.90;;;;;;5072422;28;19931;-75
2022/01/09 08:27:01;;;;;;;;;;;23.50;99.90;;;;;;5072583;28;19966;-74
2022/01/09 08:29:27;;;;;;;;;;;23.50;99.90;;;;;;5072381;28;19947;-75
2022/01/09 08:31:54;;;;;;;;;;;23.50;99.90;;;;;;5072124;28;19919;-75
2022/01/09 08:34:21;;;;;;;;;;;23.40;99.90;;;;;;5072227;28;20283;-75
2022/01/09 08:36:47;;;;;;;;;;;23.40;99.90;;;;;;5071615;28;20354;-75
2022/01/09 08:39:14;;;;;;;;;;;23.40;99.90;;;;;;5072260;28;19992;-75
2022/01/09 08:41:41;;;;;;;;;;;23.40;99.90;;;;;;5072523;28;20118;-75
2022/01/09 08:44:08;;;;;;;;;;;23.30;99.90;;;;;;5072291;28;20387;-75
2022/01/09 08:46:36;;;;;;;;;;;23.40;99.90;;;;;;5072378;28;19909;-74
2022/01/09 08:49:03;;;;;;;;;;;23.40;99.90;;;;;;5072273;28;20000;-74
2022/01/09 08:51:30;;;;;;;;;;;23.30;99.90;;;;;;5072184;28;19964;-73
2022/01/09 08:53:58;;;;;;;;;;;23.20;99.90;;;;;;5071780;28;19908;-73
2022/01/09 08:56:25;;;;;;;;;;;23.20;99.90;;;;;;5072360;28;19912;-74
2022/01/09 08:58:52;;;;;;;;;;;23.20;99.90;;;;;;5072226;28;20007;-74
2022/01/09 09:01:18;;;;;;;;;;;23.20;99.90;;;;;;5072037;28;19966;-75
2022/01/09 09:03:45;;;;;;;;;;;23.20;99.90;;;;;;5072360;28;20327;-75
2022/01/09 09:06:13;;;;;;;;;;;23.10;99.90;;;;;;5072124;28;20434;-75
2022/01/09 09:08:40;;;;;;;;;;;23.10;99.90;;;;;;5075594;28;19908;-74
2022/01/09 09:11:08;;;;;;;;;;;23.10;99.90;;;;;;5075858;28;19948;-74
2022/01/09 09:13:35;;;;;;;;;;;23.10;99.90;;;;;;5075987;28;20385;-75
2022/01/09 09:16:02;;;;;;;;;;;23.10;99.90;;;;;;5075678;28;19924;-76
2022/01/09 09:18:29;;;;;;;;;;;23.00;99.90;;;;;;5075522;28;20392;-76
2022/01/09 09:20:57;;;;;;;;;;;22.90;99.90;;;;;;5075525;28;20282;-77
2022/01/09 09:23:23;;;;;;;;;;;22.80;99.90;;;;;;5075022;28;19935;-77
2022/01/09 09:25:50;;;;;;;;;;;22.80;99.90;;;;;;5075276;28;20306;-77
2022/01/09 09:28:17;;;;;;;;;;;22.80;99.90;;;;;;5075698;28;19909;-77
2022/01/09 09:30:44;;;;;;;;;;;22.80;99.90;;;;;;5075526;28;20355;-76
2022/01/09 09:33:11;;;;;;;;;;;22.70;99.90;;;;;;5075463;28;20363;-77
2022/01/09 09:35:38;;;;;;;;;;;22.60;99.90;;;;;;5075309;28;19978;-78
2022/01/09 09:38:05;;;;;;;;;;;22.60;99.90;;;;;;5074593;28;19912;-78
2022/01/09 09:40:32;;;;;;;;;;;22.60;99.90;;;;;;5075210;28;19908;-78
2022/01/09 09:42:59;;;;;;;;;;;22.60;99.90;;;;;;5075234;28;19924;-78
2022/01/09 09:45:25;;;;;;;;;;;22.50;99.90;;;;;;5075153;28;19935;-76
2022/01/09 09:47:53;;;;;;;;;;;22.50;99.90;;;;;;5075008;28;20275;-75
2022/01/09 09:50:20;;;;;;;;;;;22.50;99.90;;;;;;5075195;28;20413;-75
2022/01/09 09:52:48;;;;;;;;;;;22.50;99.90;;;;;;5107450;28;19912;-77
2022/01/09 09:55:16;;;;;;;;;;;22.50;99.90;;;;;;5075128;28;19985;-78
2022/01/09 09:57:43;;;;;;;;;;;22.60;99.90;;;;;;5074898;28;20371;-77
2022/01/09 10:00:14;;;;;;;;;;;22.50;99.90;;;;;;5074722;28;19908;-76
2022/01/09 10:02:48;;;;;;;;;;;22.60;99.90;;;;;;5074892;28;19970;-77
2022/01/09 10:05:16;;;;;;;;;;;22.50;99.90;;;;;;5074782;28;19916;-77
2022/01/09 10:07:43;;;;;;;;;;;22.50;99.90;;;;;;5074288;28;19962;-76
2022/01/09 10:10:15;;;;;;;;;;;22.60;99.90;;;;;;5074306;28;19920;-78
2022/01/09 10:12:43;;;;;;;;;;;22.50;99.90;;;;;;5074751;28;19909;-78
2022/01/09 10:15:11;;;;;;;;;;;22.50;99.90;;;;;;5074755;28;19908;-76
2022/01/09 10:17:47;;;;;;;;;;;22.50;99.90;;;;;;5074960;28;19912;-78
2022/01/09 10:20:18;;;;;;;;;;;22.50;99.90;;;;;;5073853;28;20282;-77
2022/01/09 10:22:46;;;;;;;;;;;22.60;99.90;;;;;;5074027;28;19924;-78
2022/01/09 10:25:28;;;;;;;;;;;22.70;99.90;;;;;;5074330;28;20283;-78
2022/01/09 10:27:57;;;;;;;;;;;22.70;99.90;;;;;;5074420;28;20006;-78
2022/01/09 10:30:26;;;;;;;;;;;22.70;99.90;;;;;;5074472;28;19909;-76
2022/01/09 10:33:00;;;;;;;;;;;22.70;99.90;;;;;;5074174;28;19970;-77
2022/01/09 10:35:28;;;;;;;;;;;22.70;99.90;;;;;;5074229;28;19912;-76
2022/01/09 10:38:05;;;;;;;;;;;22.70;99.90;;;;;;5073356;28;19918;-75
2022/01/09 10:40:33;;;;;;;;;;;22.70;99.90;;;;;;5074215;28;19915;-76
2022/01/09 10:43:08;;;;;;;;;;;22.70;99.90;;;;;;5074371;28;19924;-77
2022/01/09 10:45:37;;;;;;;;;;;22.70;99.90;;;;;;5074241;28;19920;-78
2022/01/09 10:48:05;;;;;;;;;;;22.70;99.90;;;;;;5073873;28;20321;-77
2022/01/09 10:50:33;;;;;;;;;;;22.70;99.90;;;;;;5074108;28;19919;-76
2022/01/09 10:53:18;;;;;;;;;;;22.70;99.90;;;;;;5074085;28;19916;-76
2022/01/09 10:55:46;;;;;;;;;;;22.80;99.90;;;;;;5074076;28;19915;-76
2022/01/09 10:58:17;;;;;;;;;;;22.80;99.90;;;;;;5073823;28;19940;-77
2022/01/09 11:00:43;;;;;;;;;;;22.80;99.90;;;;;;5073759;28;19909;-77
2022/01/09 11:03:10;;;;;;;;;;;22.80;99.90;;;;;;5073654;28;19923;-77
2022/01/09 11:05:38;;;;;;;;;;;22.80;99.90;;;;;;5073740;28;19909;-75
2022/01/09 11:08:05;;;;;;;;;;;22.80;99.90;;;;;;5073675;28;20457;-76
2022/01/09 11:10:33;;;;;;;;;;;22.80;99.90;;;;;;5073568;28;19926;-77
2022/01/09 11:13:01;;;;;;;;;;;22.80;99.90;;;;;;5073593;28;20267;-76
2022/01/09 11:15:30;;;;;;;;;;;22.80;99.90;;;;;;5073626;28;19920;-77
2022/01/09 11:17:59;;;;;;;;;;;22.90;99.90;;;;;;5073162;28;19909;-77
2022/01/09 11:20:25;;;;;;;;;;;22.80;99.90;;;;;;5073251;28;19908;-76
2022/01/09 11:22:53;;;;;;;;;;;22.80;99.90;;;;;;5073448;28;19916;-77
2022/01/09 11:25:28;;;;;;;;;;;22.80;99.90;;;;;;5073419;28;19916;-78
2022/01/09 11:28:04;;;;;;;;;;;22.80;99.90;;;;;;5072975;28;19912;-77
2022/01/09 11:30:57;;;;;;;;;;;22.80;99.90;;;;;;5072300;28;19969;-76
2022/01/09 11:33:41;;;;;;;;;;;22.80;99.90;;;;;;5072116;28;19908;-76
2022/01/09 11:36:29;;;;;;;;;;;22.80;99.90;;;;;;5073086;28;19908;-77
2022/01/09 11:38:59;;;;;;;;;;;22.80;99.90;;;;;;5073094;28;19909;-77
2022/01/09 11:41:27;;;;;;;;;;;22.80;99.90;;;;;;5073001;28;19994;-77
2022/01/09 11:43:54;;;;;;;;;;;22.80;99.90;;;;;;5072886;28;19932;-77
2022/01/09 11:46:21;;;;;;;;;;;22.80;99.90;;;;;;5072879;28;19913;-77
2022/01/09 11:48:53;;;;;;;;;;;22.90;99.90;;;;;;5072731;28;19913;-77
2022/01/09 11:51:21;;;;;;;;;;;22.90;99.90;;;;;;5072852;28;19908;-77
2022/01/09 11:53:57;;;;;;;;;;;22.90;99.90;;;;;;5072699;28;19999;-77
2022/01/09 11:56:42;;;;;;;;;;;22.90;99.90;;;;;;5073002;28;19909;-77
2022/01/09 11:59:20;;;;;;;;;;;22.80;99.90;;;;;;5072859;28;20288;-78
2022/01/09 12:01:48;;;;;;;;;;;22.90;99.90;;;;;;5072588;28;19916;-77
2022/01/09 12:04:38;;;;;;;;;;;22.90;99.90;;;;;;5072807;28;19915;-77
2022/01/09 12:07:09;;;;;;;;;;;22.80;99.90;;;;;;5062386;28;20335;-76
2022/01/09 12:09:36;;;;;;;;;;;22.80;99.90;;;;;;5072648;28;19921;-75
2022/01/09 12:12:03;;;;;;;;;;;22.70;99.90;;;;;;5072550;28;19931;-76
2022/01/09 12:14:45;;;;;;;;;;;22.70;99.90;;;;;;5072575;28;19959;-76
2022/01/09 12:17:25;;;;;;;;;;;22.70;99.90;;;;;;5072574;28;19939;-76
2022/01/09 12:20:07;;;;;;;;;;;22.70;99.90;;;;;;5072198;28;19908;-76
2022/01/09 12:25:07;;;;;;;;;;;22.70;99.90;;;;;;5072382;28;19908;-77
2022/01/09 12:27:44;;;;;;;;;;;22.80;99.90;;;;;;5072467;28;19908;-77
2022/01/09 12:30:34;;;;;;;;;;;22.80;99.90;;;;;;5072111;28;20019;-76
2022/01/09 12:33:01;;;;;;;;;;;22.80;99.90;;;;;;5072070;28;19910;-75
2022/01/09 12:35:28;;;;;;;;;;;22.80;99.90;;;;;;5072470;28;20267;-76
2022/01/09 12:37:56;;;;;;;;;;;22.80;99.90;;;;;;5072236;28;19912;-76
2022/01/09 12:40:24;;;;;;;;;;;22.80;99.90;;;;;;5072421;28;19909;-75
2022/01/09 12:42:52;;;;;;;;;;;22.90;99.90;;;;;;5075099;28;20439;-75
2022/01/09 12:45:19;;;;;;;;;;;23.00;99.90;;;;;;5076439;28;20359;-76
2022/01/09 12:47:46;;;;;;;;;;;23.10;99.90;;;;;;5076131;28;19908;-75
2022/01/09 12:50:13;;;;;;;;;;;23.10;99.90;;;;;;5076229;28;19909;-75
2022/01/09 12:52:40;;;;;;;;;;;23.00;99.90;;;;;;5076313;28;19961;-75
2022/01/09 12:55:07;;;;;;;;;;;23.00;99.90;;;;;;5076261;28;19909;-75
2022/01/09 12:57:53;;;;;;;;;;;23.10;99.90;;;;;;5076228;28;20267;-74
2022/01/09 13:00:30;;;;;;;;;;;23.10;99.90;;;;;;5076106;28;19916;-75
2022/01/09 13:02:57;;;;;;;;;;;23.10;99.90;;;;;;5076052;28;19923;-74
2022/01/09 13:05:25;;;;;;;;;;;23.10;99.90;;;;;;5076193;28;20015;-74
2022/01/09 13:07:55;;;;;;;;;;;23.10;99.90;;;;;;5075779;28;19961;-74
2022/01/09 13:10:32;;;;;;;;;;;23.00;99.90;;;;;;5075857;28;19921;-74
2022/01/09 13:12:59;;;;;;;;;;;23.10;99.90;;;;;;5076053;28;19912;-78
2022/01/09 13:15:36;;;;;;;;;;;23.10;99.90;;;;;;5076135;28;19908;-74
2022/01/09 13:18:03;;;;;;;;;;;23.10;99.90;;;;;;5075398;28;19915;-74
2022/01/09 13:20:30;;;;;;;;;;;23.00;99.90;;;;;;5075569;28;19909;-75
2022/01/09 13:23:07;;;;;;;;;;;23.00;99.90;;;;;;5075879;28;20384;-75
2022/01/09 13:25:47;;;;;;;;;;;23.00;99.90;;;;;;5075566;28;20375;-76
2022/01/09 13:28:18;;;;;;;;;;;22.90;99.90;;;;;;5075649;28;20256;-76
2022/01/09 13:30:45;;;;;;;;;;;23.00;99.90;;;;;;5075527;28;19945;-77
2022/01/09 13:33:11;;;;;;;;;;;23.00;99.90;;;;;;5075459;28;19908;-75
2022/01/09 13:35:38;;;;;;;;;;;23.00;99.90;;;;;;5075500;28;19908;-75
2022/01/09 13:38:05;;;;;;;;;;;22.90;99.90;;;;;;5075172;28;19999;-75
2022/01/09 13:40:31;;;;;;;;;;;22.90;99.90;;;;;;5075529;28;20343;-76
2022/01/09 13:42:59;;;;;;;;;;;22.90;99.90;;;;;;5075321;28;19916;-77
2022/01/09 13:45:26;;;;;;;;;;;22.90;99.90;;;;;;5075313;28;19918;-76
2022/01/09 13:47:56;;;;;;;;;;;22.90;99.90;;;;;;5074935;28;19915;-75
2022/01/09 13:50:28;;;;;;;;;;;22.90;99.90;;;;;;5075079;28;19908;-76
2022/01/09 13:52:55;;;;;;;;;;;22.90;99.90;;;;;;5074614;28;19919;-76
2022/01/09 13:55:23;;;;;;;;;;;22.90;99.90;;;;;;5074582;28;19916;-76
2022/01/09 13:57:55;;;;;;;;;;;22.90;99.90;;;;;;5074840;28;20413;-77
2022/01/09 14:00:24;;;;;;;;;;;22.90;99.90;;;;;;5075124;28;19908;-76
2022/01/09 14:02:52;;;;;;;;;;;22.90;99.90;;;;;;5074729;28;20019;-75
2022/01/09 14:05:20;;;;;;;;;;;22.90;99.90;;;;;;5074965;28;20000;-75
2022/01/09 14:07:47;;;;;;;;;;;22.90;99.90;;;;;;5074783;28;19995;-75
2022/01/09 14:10:14;;;;;;;;;;;22.90;99.90;;;;;;5074644;28;19921;-76
2022/01/09 14:12:42;;;;;;;;;;;22.90;99.90;;;;;;5074799;28;20008;-77
2022/01/09 14:15:11;;;;;;;;;;;22.90;99.90;;;;;;5074905;28;19912;-77
2022/01/09 14:17:43;;;;;;;;;;;22.80;99.90;;;;;;5074713;28;19915;-76
2022/01/09 14:20:23;;;;;;;;;;;22.90;99.90;;;;;;5074687;28;20412;-77
2022/01/09 14:22:53;;;;;;;;;;;22.80;99.90;;;;;;5074427;28;19916;-75
2022/01/09 14:25:29;;;;;;;;;;;22.80;99.90;;;;;;5074580;28;19909;-77
2022/01/09 14:27:58;;;;;;;;;;;22.80;99.90;;;;;;5074381;28;20345;-77